sensor_id;sensor_type;location;lat;lon;timestamp;temperature;humidity
3492;DHT22;1760;52.480;13.422;2023-09-30T00:00:09;17.40;99.90
3492;DHT22;1760;52.480;13.422;2023-09-30T00:05:04;17.60;99.90
3492;DHT22;1760;52.480;13.422;2023-09-30T00:07:33;17.60;99.90
3492;DHT22;1760;52.480;13.422;2023-09-30T00:09:59;17.70;99.90
3492;DHT22;1760;52.480;13.422;2023-09-30T00:12:26;17.60;99.90
3492;DHT22;1760;52.480;13.422;2023-09-30T00:14:53;17.70;99.90
3492;DHT22;1760;52.480;13.422;2023-09-30T00:17:20;18.10;99.90
3492;DHT22;1760;52.480;13.422;2023-09-30T00:19:49;17.60;99.90
3492;DHT22;1760;52.480;13.422;2023-09-30T00:22:16;17.60;99.90
3492;DHT22;1760;52.480;13.422;2023-09-30T00:24:44;18.00;99.90
3492;DHT22;1760;52.480;13.422;2023-09-30T00:27:11;17.50;99.90
3492;DHT22;1760;52.480;13.422;2023-09-30T00:29:38;17.50;99.90
3492;DHT22;1760;52.480;13.422;2023-09-30T00:34:33;17.40;99.90
3492;DHT22;1760;52.480;13.422;2023-09-30T00:37:00;17.40;99.90
3492;DHT22;1760;52.480;13.422;2023-09-30T00:39:30;17.30;99.90
3492;DHT22;1760;52.480;13.422;2023-09-30T00:42:02;17.10;99.90
3492;DHT22;1760;52.480;13.422;2023-09-30T00:44:30;17.30;99.90
3492;DHT22;1760;52.480;13.422;2023-09-30T00:49:25;16.70;99.90
3492;DHT22;1760;52.480;13.422;2023-09-30T00:51:52;17.00;99.90
3492;DHT22;1760;52.480;13.422;2023-09-30T00:54:21;17.10;99.90
3492;DHT22;1760;52.480;13.422;2023-09-30T00:56:52;16.90;99.90
3492;DHT22;1760;52.480;13.422;2023-09-30T00:59:23;16.80;99.90
3492;DHT22;1760;52.480;13.422;2023-09-30T01:01:56;16.80;99.90
3492;DHT22;1760;52.480;13.422;2023-09-30T01:04:26;16.80;99.90
3492;DHT22;1760;52.480;13.422;2023-09-30T01:06:55;17.30;99.90
3492;DHT22;1760;52.480;13.422;2023-09-30T01:09:23;16.60;99.90
3492;DHT22;1760;52.480;13.422;2023-09-30T01:11:50;16.40;99.90
3492;DHT22;1760;52.480;13.422;2023-09-30T01:14:26;16.80;99.90
3492;DHT22;1760;52.480;13.422;2023-09-30T01:16:55;16.70;99.90
3492;DHT22;1760;52.480;13.422;2023-09-30T01:19:23;16.50;99.90
3492;DHT22;1760;52.480;13.422;2023-09-30T01:21:56;16.50;99.90
3492;DHT22;1760;52.480;13.422;2023-09-30T01:24:32;16.40;99.90
3492;DHT22;1760;52.480;13.422;2023-09-30T01:27:07;16.20;99.90
3492;DHT22;1760;52.480;13.422;2023-09-30T01:29:34;16.70;99.90
3492;DHT22;1760;52.480;13.422;2023-09-30T01:32:03;16.20;99.90
3492;DHT22;1760;52.480;13.422;2023-09-30T01:34:33;15.70;99.90
3492;DHT22;1760;52.480;13.422;2023-09-30T01:37:01;15.70;99.90
3492;DHT22;1760;52.480;13.422;2023-09-30T01:39:28;16.00;99.90
3492;DHT22;1760;52.480;13.422;2023-09-30T01:41:55;16.30;99.90
3492;DHT22;1760;52.480;13.422;2023-09-30T01:44:22;16.10;99.90
3492;DHT22;1760;52.480;13.422;2023-09-30T01:51:45;16.00;99.90
3492;DHT22;1760;52.480;13.422;2023-09-30T01:54:14;15.90;99.90
3492;DHT22;1760;52.480;13.422;2023-09-30T01:59:08;16.00;99.90
3492;DHT22;1760;52.480;13.422;2023-09-30T02:01:35;16.00;99.90
3492;DHT22;1760;52.480;13.422;2023-09-30T02:04:02;15.80;99.90
3492;DHT22;1760;52.480;13.422;2023-09-30T02:06:30;15.80;99.90
3492;DHT22;1760;52.480;13.422;2023-09-30T02:09:01;15.80;99.90
3492;DHT22;1760;52.480;13.422;2023-09-30T02:11:32;15.70;99.90
3492;DHT22;1760;52.480;13.422;2023-09-30T02:14:00;15.70;99.90
3492;DHT22;1760;52.480;13.422;2023-09-30T02:18:55;16.10;99.90
3492;DHT22;1760;52.480;13.422;2023-09-30T02:21:22;15.60;99.90
3492;DHT22;1760;52.480;13.422;2023-09-30T02:28:49;15.40;99.90
3492;DHT22;1760;52.480;13.422;2023-09-30T02:31:17;15.50;99.90
3492;DHT22;1760;52.480;13.422;2023-09-30T02:33:44;15.30;99.90
3492;DHT22;1760;52.480;13.422;2023-09-30T02:38:41;15.40;99.90
3492;DHT22;1760;52.480;13.422;2023-09-30T02:41:09;15.40;99.90
3492;DHT22;1760;52.480;13.422;2023-09-30T02:43:36;15.30;99.90
3492;DHT22;1760;52.480;13.422;2023-09-30T02:46:07;15.30;99.90
3492;DHT22;1760;52.480;13.422;2023-09-30T02:48:37;15.20;99.90
3492;DHT22;1760;52.480;13.422;2023-09-30T02:51:09;15.40;99.90
3492;DHT22;1760;52.480;13.422;2023-09-30T02:53:37;15.30;99.90
3492;DHT22;1760;52.480;13.422;2023-09-30T02:56:04;15.30;99.90
3492;DHT22;1760;52.480;13.422;2023-09-30T03:00:59;15.30;99.90
3492;DHT22;1760;52.480;13.422;2023-09-30T03:03:27;15.40;99.90
3492;DHT22;1760;52.480;13.422;2023-09-30T03:05:56;14.80;99.90
3492;DHT22;1760;52.480;13.422;2023-09-30T03:08:25;15.00;99.90
3492;DHT22;1760;52.480;13.422;2023-09-30T03:10:51;15.00;99.90
3492;DHT22;1760;52.480;13.422;2023-09-30T03:13:19;15.50;99.90
3492;DHT22;1760;52.480;13.422;2023-09-30T03:18:15;15.10;99.90
3492;DHT22;1760;52.480;13.422;2023-09-30T03:20:44;15.10;99.90
3492;DHT22;1760;52.480;13.422;2023-09-30T03:23:10;15.20;99.90
3492;DHT22;1760;52.480;13.422;2023-09-30T03:28:07;15.00;99.90
3492;DHT22;1760;52.480;13.422;2023-09-30T03:30:34;14.80;99.90
3492;DHT22;1760;52.480;13.422;2023-09-30T03:33:01;15.60;99.90
3492;DHT22;1760;52.480;13.422;2023-09-30T03:35:30;14.50;99.90
3492;DHT22;1760;52.480;13.422;2023-09-30T03:37:59;15.00;99.90
3492;DHT22;1760;52.480;13.422;2023-09-30T03:40:27;15.50;99.90
3492;DHT22;1760;52.480;13.422;2023-09-30T03:45:27;14.90;99.90
3492;DHT22;1760;52.480;13.422;2023-09-30T03:47:53;14.90;99.90
3492;DHT22;1760;52.480;13.422;2023-09-30T03:52:49;15.00;99.90
3492;DHT22;1760;52.480;13.422;2023-09-30T03:55:17;14.60;99.90
3492;DHT22;1760;52.480;13.422;2023-09-30T03:57:46;14.80;99.90
3492;DHT22;1760;52.480;13.422;2023-09-30T04:00:14;14.70;99.90
3492;DHT22;1760;52.480;13.422;2023-09-30T04:02:44;14.70;99.90
3492;DHT22;1760;52.480;13.422;2023-09-30T04:05:15;14.50;99.90
3492;DHT22;1760;52.480;13.422;2023-09-30T04:07:43;14.60;99.90
3492;DHT22;1760;52.480;13.422;2023-09-30T04:10:10;14.50;99.90
3492;DHT22;1760;52.480;13.422;2023-09-30T04:12:39;14.40;99.90
3492;DHT22;1760;52.480;13.422;2023-09-30T04:15:11;14.50;99.90
3492;DHT22;1760;52.480;13.422;2023-09-30T04:17:38;14.00;99.90
3492;DHT22;1760;52.480;13.422;2023-09-30T04:20:07;14.60;99.90
3492;DHT22;1760;52.480;13.422;2023-09-30T04:22:38;15.70;99.90
3492;DHT22;1760;52.480;13.422;2023-09-30T04:25:06;14.40;99.90
3492;DHT22;1760;52.480;13.422;2023-09-30T04:27:38;13.80;99.90
3492;DHT22;1760;52.480;13.422;2023-09-30T04:30:08;14.20;99.90
3492;DHT22;1760;52.480;13.422;2023-09-30T04:32:36;14.40;99.90
3492;DHT22;1760;52.480;13.422;2023-09-30T04:35:04;14.20;99.90
3492;DHT22;1760;52.480;13.422;2023-09-30T04:37:34;14.30;99.90
3492;DHT22;1760;52.480;13.422;2023-09-30T04:40:03;14.10;99.90
3492;DHT22;1760;52.480;13.422;2023-09-30T04:42:34;14.20;99.90
3492;DHT22;1760;52.480;13.422;2023-09-30T04:45:04;14.30;99.90
3492;DHT22;1760;52.480;13.422;2023-09-30T04:47:32;14.20;99.90
3492;DHT22;1760;52.480;13.422;2023-09-30T04:49:59;14.20;99.90
3492;DHT22;1760;52.480;13.422;2023-09-30T04:52:30;14.30;99.90
3492;DHT22;1760;52.480;13.422;2023-09-30T04:54:57;14.30;99.90
3492;DHT22;1760;52.480;13.422;2023-09-30T04:57:25;14.20;99.90
3492;DHT22;1760;52.480;13.422;2023-09-30T04:59:54;14.10;99.90
3492;DHT22;1760;52.480;13.422;2023-09-30T05:02:23;14.10;99.90
3492;DHT22;1760;52.480;13.422;2023-09-30T05:04:50;14.40;99.90
3492;DHT22;1760;52.480;13.422;2023-09-30T05:07:18;14.10;99.90
3492;DHT22;1760;52.480;13.422;2023-09-30T05:09:44;14.20;99.90
3492;DHT22;1760;52.480;13.422;2023-09-30T05:12:11;14.10;99.90
3492;DHT22;1760;52.480;13.422;2023-09-30T05:14:38;14.10;99.90
3492;DHT22;1760;52.480;13.422;2023-09-30T05:17:05;14.30;99.90
3492;DHT22;1760;52.480;13.422;2023-09-30T05:19:35;14.10;99.90
3492;DHT22;1760;52.480;13.422;2023-09-30T05:22:02;14.10;99.90
3492;DHT22;1760;52.480;13.422;2023-09-30T05:24:31;14.00;99.90
3492;DHT22;1760;52.480;13.422;2023-09-30T05:26:58;14.10;99.90
3492;DHT22;1760;52.480;13.422;2023-09-30T05:29:24;13.90;99.90
3492;DHT22;1760;52.480;13.422;2023-09-30T05:31:51;13.90;99.90
3492;DHT22;1760;52.480;13.422;2023-09-30T05:34:18;14.10;99.90
3492;DHT22;1760;52.480;13.422;2023-09-30T05:36:46;14.20;99.90
3492;DHT22;1760;52.480;13.422;2023-09-30T05:39:13;13.50;99.90
3492;DHT22;1760;52.480;13.422;2023-09-30T05:41:45;14.00;99.90
3492;DHT22;1760;52.480;13.422;2023-09-30T05:44:12;13.90;99.90
3492;DHT22;1760;52.480;13.422;2023-09-30T05:46:39;13.10;99.90
3492;DHT22;1760;52.480;13.422;2023-09-30T05:51:42;14.10;99.90
3492;DHT22;1760;52.480;13.422;2023-09-30T05:54:12;14.20;99.90
3492;DHT22;1760;52.480;13.422;2023-09-30T05:56:44;14.20;99.90
3492;DHT22;1760;52.480;13.422;2023-09-30T06:01:43;14.20;99.90
3492;DHT22;1760;52.480;13.422;2023-09-30T06:04:12;14.10;99.90
3492;DHT22;1760;52.480;13.422;2023-09-30T06:06:39;14.50;99.90
3492;DHT22;1760;52.480;13.422;2023-09-30T06:11:37;14.50;99.90
3492;DHT22;1760;52.480;13.422;2023-09-30T06:14:04;14.40;99.90
3492;DHT22;1760;52.480;13.422;2023-09-30T06:16:32;14.70;99.90
3492;DHT22;1760;52.480;13.422;2023-09-30T06:19:00;14.60;99.90
3492;DHT22;1760;52.480;13.422;2023-09-30T06:21:27;14.80;99.90
3492;DHT22;1760;52.480;13.422;2023-09-30T06:23:55;14.70;99.90
3492;DHT22;1760;52.480;13.422;2023-09-30T06:26:24;14.00;99.90
3492;DHT22;1760;52.480;13.422;2023-09-30T06:28:57;14.70;99.90
3492;DHT22;1760;52.480;13.422;2023-09-30T06:31:25;14.80;99.90
3492;DHT22;1760;52.480;13.422;2023-09-30T06:36:24;14.60;99.90
3492;DHT22;1760;52.480;13.422;2023-09-30T06:41:18;14.90;99.90
3492;DHT22;1760;52.480;13.422;2023-09-30T06:43:45;14.90;99.90
3492;DHT22;1760;52.480;13.422;2023-09-30T06:46:13;14.90;99.90
3492;DHT22;1760;52.480;13.422;2023-09-30T06:51:14;15.20;99.90
3492;DHT22;1760;52.480;13.422;2023-09-30T06:56:11;15.00;99.90
3492;DHT22;1760;52.480;13.422;2023-09-30T06:58:40;16.80;99.90
3492;DHT22;1760;52.480;13.422;2023-09-30T07:03:36;15.10;99.90
3492;DHT22;1760;52.480;13.422;2023-09-30T07:06:03;15.90;99.90
3492;DHT22;1760;52.480;13.422;2023-09-30T07:08:30;15.30;99.90
3492;DHT22;1760;52.480;13.422;2023-09-30T07:13:26;14.90;99.90
3492;DHT22;1760;52.480;13.422;2023-09-30T07:18:20;15.30;99.90
3492;DHT22;1760;52.480;13.422;2023-09-30T07:20:48;15.30;99.90
3492;DHT22;1760;52.480;13.422;2023-09-30T07:25:44;15.80;99.90
3492;DHT22;1760;52.480;13.422;2023-09-30T07:33:06;15.50;99.90
3492;DHT22;1760;52.480;13.422;2023-09-30T07:35:33;15.60;99.90
3492;DHT22;1760;52.480;13.422;2023-09-30T07:38:03;15.70;99.90
3492;DHT22;1760;52.480;13.422;2023-09-30T07:40:30;15.80;99.90
3492;DHT22;1760;52.480;13.422;2023-09-30T07:42:58;15.70;99.90
3492;DHT22;1760;52.480;13.422;2023-09-30T07:45:25;15.70;99.90
3492;DHT22;1760;52.480;13.422;2023-09-30T07:47:51;15.80;99.90
3492;DHT22;1760;52.480;13.422;2023-09-30T07:50:18;15.80;99.90
3492;DHT22;1760;52.480;13.422;2023-09-30T07:55:14;15.60;99.90
3492;DHT22;1760;52.480;13.422;2023-09-30T07:57:43;15.80;99.90
3492;DHT22;1760;52.480;13.422;2023-09-30T08:00:12;15.80;99.90
3492;DHT22;1760;52.480;13.422;2023-09-30T08:02:46;15.40;99.90
3492;DHT22;1760;52.480;13.422;2023-09-30T08:05:14;15.60;99.90
3492;DHT22;1760;52.480;13.422;2023-09-30T08:07:41;15.70;99.90
3492;DHT22;1760;52.480;13.422;2023-09-30T08:10:08;15.60;99.90
3492;DHT22;1760;52.480;13.422;2023-09-30T08:12:40;15.70;99.90
3492;DHT22;1760;52.480;13.422;2023-09-30T08:15:13;15.70;99.90
3492;DHT22;1760;52.480;13.422;2023-09-30T08:17:40;15.80;99.90
3492;DHT22;1760;52.480;13.422;2023-09-30T08:20:08;16.00;99.90
3492;DHT22;1760;52.480;13.422;2023-09-30T08:25:03;16.40;99.90
3492;DHT22;1760;52.480;13.422;2023-09-30T08:27:31;16.40;99.90
3492;DHT22;1760;52.480;13.422;2023-09-30T08:30:01;16.70;99.90
3492;DHT22;1760;52.480;13.422;2023-09-30T08:32:32;17.20;99.90
3492;DHT22;1760;52.480;13.422;2023-09-30T08:34:59;18.20;99.90
3492;DHT22;1760;52.480;13.422;2023-09-30T08:37:28;18.40;99.90
3492;DHT22;1760;52.480;13.422;2023-09-30T08:39:57;18.70;99.90
3492;DHT22;1760;52.480;13.422;2023-09-30T08:42:24;18.80;99.90
3492;DHT22;1760;52.480;13.422;2023-09-30T08:44:55;18.90;99.90
3492;DHT22;1760;52.480;13.422;2023-09-30T08:47:26;18.60;99.90
3492;DHT22;1760;52.480;13.422;2023-09-30T08:49:54;18.50;99.90
3492;DHT22;1760;52.480;13.422;2023-09-30T08:52:26;19.40;99.90
3492;DHT22;1760;52.480;13.422;2023-09-30T08:54:55;19.40;99.90
3492;DHT22;1760;52.480;13.422;2023-09-30T08:59:50;20.40;99.90
3492;DHT22;1760;52.480;13.422;2023-09-30T09:02:19;20.00;99.90
3492;DHT22;1760;52.480;13.422;2023-09-30T09:04:47;19.60;99.90
3492;DHT22;1760;52.480;13.422;2023-09-30T09:07:15;19.50;99.90
3492;DHT22;1760;52.480;13.422;2023-09-30T09:10:05;20.20;99.90
3492;DHT22;1760;52.480;13.422;2023-09-30T09:12:34;20.40;99.90
3492;DHT22;1760;52.480;13.422;2023-09-30T09:15:02;20.30;99.90
3492;DHT22;1760;52.480;13.422;2023-09-30T09:17:42;20.00;99.90
3492;DHT22;1760;52.480;13.422;2023-09-30T09:20:21;19.80;99.90
3492;DHT22;1760;52.480;13.422;2023-09-30T09:22:55;19.90;99.90
3492;DHT22;1760;52.480;13.422;2023-09-30T09:25:23;20.00;99.90
3492;DHT22;1760;52.480;13.422;2023-09-30T09:30:19;20.40;99.90
3492;DHT22;1760;52.480;13.422;2023-09-30T09:33:00;21.30;99.90
3492;DHT22;1760;52.480;13.422;2023-09-30T09:35:29;22.00;99.90
3492;DHT22;1760;52.480;13.422;2023-09-30T09:37:58;22.70;99.90
3492;DHT22;1760;52.480;13.422;2023-09-30T09:40:26;22.70;99.90
3492;DHT22;1760;52.480;13.422;2023-09-30T09:42:54;23.60;99.90
3492;DHT22;1760;52.480;13.422;2023-09-30T09:45:24;23.40;99.90
3492;DHT22;1760;52.480;13.422;2023-09-30T09:47:52;23.70;99.90
3492;DHT22;1760;52.480;13.422;2023-09-30T09:50:20;24.80;99.90
3492;DHT22;1760;52.480;13.422;2023-09-30T09:52:50;24.70;99.90
3492;DHT22;1760;52.480;13.422;2023-09-30T09:55:19;25.30;99.90
3492;DHT22;1760;52.480;13.422;2023-09-30T10:00:16;26.50;99.90
3492;DHT22;1760;52.480;13.422;2023-09-30T10:02:44;25.80;99.90
3492;DHT22;1760;52.480;13.422;2023-09-30T10:05:15;26.00;97.20
3492;DHT22;1760;52.480;13.422;2023-09-30T10:07:53;25.90;99.90
3492;DHT22;1760;52.480;13.422;2023-09-30T10:10:22;25.30;99.90
3492;DHT22;1760;52.480;13.422;2023-09-30T10:12:51;25.40;98.10
3492;DHT22;1760;52.480;13.422;2023-09-30T10:15:39;23.90;99.90
3492;DHT22;1760;52.480;13.422;2023-09-30T10:18:10;23.30;99.90
3492;DHT22;1760;52.480;13.422;2023-09-30T10:20:38;23.20;99.90
3492;DHT22;1760;52.480;13.422;2023-09-30T10:23:24;23.20;99.90
3492;DHT22;1760;52.480;13.422;2023-09-30T10:26:14;22.80;99.90
3492;DHT22;1760;52.480;13.422;2023-09-30T10:28:44;22.90;99.90
3492;DHT22;1760;52.480;13.422;2023-09-30T10:31:15;22.90;99.90
3492;DHT22;1760;52.480;13.422;2023-09-30T10:34:23;23.80;99.90
3492;DHT22;1760;52.480;13.422;2023-09-30T10:36:51;23.80;99.70
3492;DHT22;1760;52.480;13.422;2023-09-30T10:42:44;22.70;99.90
3492;DHT22;1760;52.480;13.422;2023-09-30T10:45:44;22.20;99.90
3492;DHT22;1760;52.480;13.422;2023-09-30T10:48:39;21.70;99.90
3492;DHT22;1760;52.480;13.422;2023-09-30T10:51:17;21.30;99.90
3492;DHT22;1760;52.480;13.422;2023-09-30T10:53:50;21.00;99.90
3492;DHT22;1760;52.480;13.422;2023-09-30T10:56:23;20.80;99.90
3492;DHT22;1760;52.480;13.422;2023-09-30T10:58:55;20.80;99.90
3492;DHT22;1760;52.480;13.422;2023-09-30T11:03:58;20.20;99.90
3492;DHT22;1760;52.480;13.422;2023-09-30T11:08:57;20.10;99.90
3492;DHT22;1760;52.480;13.422;2023-09-30T11:11:36;20.00;99.90
3492;DHT22;1760;52.480;13.422;2023-09-30T11:14:16;20.10;99.90
3492;DHT22;1760;52.480;13.422;2023-09-30T11:16:46;18.80;99.90
3492;DHT22;1760;52.480;13.422;2023-09-30T11:21:41;20.50;99.90
3492;DHT22;1760;52.480;13.422;2023-09-30T11:24:09;20.30;99.90
3492;DHT22;1760;52.480;13.422;2023-09-30T11:26:37;19.90;99.90
3492;DHT22;1760;52.480;13.422;2023-09-30T11:29:09;20.00;99.90
3492;DHT22;1760;52.480;13.422;2023-09-30T11:31:37;19.90;99.90
3492;DHT22;1760;52.480;13.422;2023-09-30T11:34:04;19.70;99.90
3492;DHT22;1760;52.480;13.422;2023-09-30T11:36:34;20.00;99.90
3492;DHT22;1760;52.480;13.422;2023-09-30T11:41:36;20.40;99.90
3492;DHT22;1760;52.480;13.422;2023-09-30T11:44:06;20.40;99.90
3492;DHT22;1760;52.480;13.422;2023-09-30T11:46:50;20.20;99.90
3492;DHT22;1760;52.480;13.422;2023-09-30T11:49:26;19.80;99.90
3492;DHT22;1760;52.480;13.422;2023-09-30T11:51:53;20.00;99.90
3492;DHT22;1760;52.480;13.422;2023-09-30T11:54:20;20.00;99.90
3492;DHT22;1760;52.480;13.422;2023-09-30T11:56:51;19.90;99.90
3492;DHT22;1760;52.480;13.422;2023-09-30T11:59:18;19.90;99.90
3492;DHT22;1760;52.480;13.422;2023-09-30T12:01:49;20.10;99.90
3492;DHT22;1760;52.480;13.422;2023-09-30T12:06:45;20.40;99.90
3492;DHT22;1760;52.480;13.422;2023-09-30T12:09:12;20.80;99.90
3492;DHT22;1760;52.480;13.422;2023-09-30T12:11:40;20.50;99.90
3492;DHT22;1760;52.480;13.422;2023-09-30T12:14:12;20.50;99.90
3492;DHT22;1760;52.480;13.422;2023-09-30T12:16:39;20.60;99.90
3492;DHT22;1760;52.480;13.422;2023-09-30T12:19:08;20.90;99.90
3492;DHT22;1760;52.480;13.422;2023-09-30T12:21:35;20.80;99.90
3492;DHT22;1760;52.480;13.422;2023-09-30T12:24:03;20.60;99.90
3492;DHT22;1760;52.480;13.422;2023-09-30T12:26:33;20.20;99.90
3492;DHT22;1760;52.480;13.422;2023-09-30T12:29:00;20.20;99.90
3492;DHT22;1760;52.480;13.422;2023-09-30T12:31:27;20.20;99.90
3492;DHT22;1760;52.480;13.422;2023-09-30T12:33:54;20.80;99.90
3492;DHT22;1760;52.480;13.422;2023-09-30T12:36:22;20.20;99.90
3492;DHT22;1760;52.480;13.422;2023-09-30T12:38:50;20.50;99.90
3492;DHT22;1760;52.480;13.422;2023-09-30T12:41:16;20.20;99.90
3492;DHT22;1760;52.480;13.422;2023-09-30T12:43:44;20.30;99.90
3492;DHT22;1760;52.480;13.422;2023-09-30T12:46:11;20.60;99.90
3492;DHT22;1760;52.480;13.422;2023-09-30T12:48:39;20.50;99.90
3492;DHT22;1760;52.480;13.422;2023-09-30T12:51:06;20.70;99.90
3492;DHT22;1760;52.480;13.422;2023-09-30T12:53:37;21.20;99.90
3492;DHT22;1760;52.480;13.422;2023-09-30T12:56:04;21.20;99.90
3492;DHT22;1760;52.480;13.422;2023-09-30T12:58:32;21.50;99.90
3492;DHT22;1760;52.480;13.422;2023-09-30T13:00:59;21.90;99.90
3492;DHT22;1760;52.480;13.422;2023-09-30T13:03:26;21.70;99.90
3492;DHT22;1760;52.480;13.422;2023-09-30T13:05:53;21.60;99.90
3492;DHT22;1760;52.480;13.422;2023-09-30T13:08:20;21.50;99.90
3492;DHT22;1760;52.480;13.422;2023-09-30T13:10:48;21.80;99.90
3492;DHT22;1760;52.480;13.422;2023-09-30T13:18:15;22.10;99.20
3492;DHT22;1760;52.480;13.422;2023-09-30T13:20:43;22.10;99.90
3492;DHT22;1760;52.480;13.422;2023-09-30T13:23:10;21.90;99.90
3492;DHT22;1760;52.480;13.422;2023-09-30T13:28:08;21.80;99.30
3492;DHT22;1760;52.480;13.422;2023-09-30T13:30:35;21.50;99.90
3492;DHT22;1760;52.480;13.422;2023-09-30T13:33:02;20.70;99.90
3492;DHT22;1760;52.480;13.422;2023-09-30T13:35:29;21.40;99.90
3492;DHT22;1760;52.480;13.422;2023-09-30T13:37:56;20.90;99.90
3492;DHT22;1760;52.480;13.422;2023-09-30T13:40:23;20.90;99.90
3492;DHT22;1760;52.480;13.422;2023-09-30T13:42:50;20.70;99.90
3492;DHT22;1760;52.480;13.422;2023-09-30T13:45:19;20.90;97.70
3492;DHT22;1760;52.480;13.422;2023-09-30T13:52:41;20.30;99.90
3492;DHT22;1760;52.480;13.422;2023-09-30T13:55:10;20.70;96.50
3492;DHT22;1760;52.480;13.422;2023-09-30T13:57:37;20.60;99.90
3492;DHT22;1760;52.480;13.422;2023-09-30T14:00:05;20.50;99.90
3492;DHT22;1760;52.480;13.422;2023-09-30T14:02:37;20.50;96.80
3492;DHT22;1760;52.480;13.422;2023-09-30T14:05:08;20.40;99.90
3492;DHT22;1760;52.480;13.422;2023-09-30T14:07:35;20.60;99.90
3492;DHT22;1760;52.480;13.422;2023-09-30T14:10:02;20.40;99.90
3492;DHT22;1760;52.480;13.422;2023-09-30T14:12:29;20.20;99.90
3492;DHT22;1760;52.480;13.422;2023-09-30T14:17:26;20.50;99.90
3492;DHT22;1760;52.480;13.422;2023-09-30T14:19:55;20.30;99.90
3492;DHT22;1760;52.480;13.422;2023-09-30T14:22:22;20.50;99.90
3492;DHT22;1760;52.480;13.422;2023-09-30T14:24:48;20.50;99.90
3492;DHT22;1760;52.480;13.422;2023-09-30T14:27:15;20.40;96.30
3492;DHT22;1760;52.480;13.422;2023-09-30T14:29:44;20.40;99.90
3492;DHT22;1760;52.480;13.422;2023-09-30T14:32:11;20.20;99.90
3492;DHT22;1760;52.480;13.422;2023-09-30T14:34:38;20.60;99.90
3492;DHT22;1760;52.480;13.422;2023-09-30T14:37:06;20.30;99.90
3492;DHT22;1760;52.480;13.422;2023-09-30T14:39:33;20.10;99.90
3492;DHT22;1760;52.480;13.422;2023-09-30T14:42:00;20.60;99.90
3492;DHT22;1760;52.480;13.422;2023-09-30T14:44:27;20.10;99.90
3492;DHT22;1760;52.480;13.422;2023-09-30T14:46:54;19.90;99.90
3492;DHT22;1760;52.480;13.422;2023-09-30T14:49:25;20.20;98.40
3492;DHT22;1760;52.480;13.422;2023-09-30T14:54:20;20.20;97.00
3492;DHT22;1760;52.480;13.422;2023-09-30T14:56:47;19.90;99.90
3492;DHT22;1760;52.480;13.422;2023-09-30T14:59:14;20.10;99.90
3492;DHT22;1760;52.480;13.422;2023-09-30T15:01:41;19.90;99.90
3492;DHT22;1760;52.480;13.422;2023-09-30T15:04:08;19.80;99.90
3492;DHT22;1760;52.480;13.422;2023-09-30T15:06:35;19.90;99.90
3492;DHT22;1760;52.480;13.422;2023-09-30T15:09:02;19.70;99.90
3492;DHT22;1760;52.480;13.422;2023-09-30T15:11:31;19.70;98.30
3492;DHT22;1760;52.480;13.422;2023-09-30T15:13:59;19.70;98.20
3492;DHT22;1760;52.480;13.422;2023-09-30T15:16:28;19.70;99.30
3492;DHT22;1760;52.480;13.422;2023-09-30T15:18:54;19.80;99.90
3492;DHT22;1760;52.480;13.422;2023-09-30T15:23:50;19.60;99.90
3492;DHT22;1760;52.480;13.422;2023-09-30T15:26:19;19.60;99.90
3492;DHT22;1760;52.480;13.422;2023-09-30T15:28:47;19.40;99.90
3492;DHT22;1760;52.480;13.422;2023-09-30T15:36:10;19.30;99.90
3492;DHT22;1760;52.480;13.422;2023-09-30T15:43:32;19.20;99.90
3492;DHT22;1760;52.480;13.422;2023-09-30T15:46:03;19.50;99.90
3492;DHT22;1760;52.480;13.422;2023-09-30T15:48:30;19.10;99.90
3492;DHT22;1760;52.480;13.422;2023-09-30T15:50:57;19.00;99.90
3492;DHT22;1760;52.480;13.422;2023-09-30T15:53:23;19.20;99.90
3492;DHT22;1760;52.480;13.422;2023-09-30T15:58:18;19.20;99.90
3492;DHT22;1760;52.480;13.422;2023-09-30T16:03:15;19.10;99.90
3492;DHT22;1760;52.480;13.422;2023-09-30T16:05:42;19.10;99.90
3492;DHT22;1760;52.480;13.422;2023-09-30T16:08:09;19.30;99.90
3492;DHT22;1760;52.480;13.422;2023-09-30T16:10:36;18.80;99.90
3492;DHT22;1760;52.480;13.422;2023-09-30T16:13:04;19.10;99.90
3492;DHT22;1760;52.480;13.422;2023-09-30T16:18:00;18.90;99.90
3492;DHT22;1760;52.480;13.422;2023-09-30T16:20:29;18.90;99.90
3492;DHT22;1760;52.480;13.422;2023-09-30T16:22:56;19.00;99.90
3492;DHT22;1760;52.480;13.422;2023-09-30T16:25:23;18.70;99.90
3492;DHT22;1760;52.480;13.422;2023-09-30T16:27:50;18.70;99.90
3492;DHT22;1760;52.480;13.422;2023-09-30T16:30:18;18.60;99.90
3492;DHT22;1760;52.480;13.422;2023-09-30T16:35:12;18.40;99.90
3492;DHT22;1760;52.480;13.422;2023-09-30T16:37:40;18.30;99.90
3492;DHT22;1760;52.480;13.422;2023-09-30T16:40:08;18.50;99.90
3492;DHT22;1760;52.480;13.422;2023-09-30T16:42:35;18.30;99.90
3492;DHT22;1760;52.480;13.422;2023-09-30T16:47:30;18.30;99.90
3492;DHT22;1760;52.480;13.422;2023-09-30T16:49:58;18.30;99.90
3492;DHT22;1760;52.480;13.422;2023-09-30T16:54:54;18.20;99.90
3492;DHT22;1760;52.480;13.422;2023-09-30T16:57:21;18.20;99.90
3492;DHT22;1760;52.480;13.422;2023-09-30T17:04:47;18.30;99.90
3492;DHT22;1760;52.480;13.422;2023-09-30T17:07:14;18.20;99.90
3492;DHT22;1760;52.480;13.422;2023-09-30T17:12:09;18.20;99.90
3492;DHT22;1760;52.480;13.422;2023-09-30T17:14:36;18.20;99.90
3492;DHT22;1760;52.480;13.422;2023-09-30T17:17:03;18.10;99.90
3492;DHT22;1760;52.480;13.422;2023-09-30T17:19:30;18.10;99.90
3492;DHT22;1760;52.480;13.422;2023-09-30T17:24:24;18.20;99.90
3492;DHT22;1760;52.480;13.422;2023-09-30T17:26:51;18.00;99.90
3492;DHT22;1760;52.480;13.422;2023-09-30T17:29:19;18.00;99.90
3492;DHT22;1760;52.480;13.422;2023-09-30T17:31:46;17.80;99.90
3492;DHT22;1760;52.480;13.422;2023-09-30T17:36:40;17.60;99.90
3492;DHT22;1760;52.480;13.422;2023-09-30T17:39:08;17.60;99.90
3492;DHT22;1760;52.480;13.422;2023-09-30T17:41:35;17.40;99.90
3492;DHT22;1760;52.480;13.422;2023-09-30T17:44:02;17.50;99.90
3492;DHT22;1760;52.480;13.422;2023-09-30T17:46:30;17.50;99.90
3492;DHT22;1760;52.480;13.422;2023-09-30T17:48:57;17.50;99.90
3492;DHT22;1760;52.480;13.422;2023-09-30T17:51:24;17.30;99.90
3492;DHT22;1760;52.480;13.422;2023-09-30T17:53:52;17.30;99.90
3492;DHT22;1760;52.480;13.422;2023-09-30T17:56:20;17.00;99.90
3492;DHT22;1760;52.480;13.422;2023-09-30T17:58:48;17.20;99.90
3492;DHT22;1760;52.480;13.422;2023-09-30T18:01:15;16.80;99.90
3492;DHT22;1760;52.480;13.422;2023-09-30T18:03:46;17.00;99.90
3492;DHT22;1760;52.480;13.422;2023-09-30T18:06:13;16.90;99.90
3492;DHT22;1760;52.480;13.422;2023-09-30T18:08:41;16.90;99.90
3492;DHT22;1760;52.480;13.422;2023-09-30T18:11:08;17.20;99.90
3492;DHT22;1760;52.480;13.422;2023-09-30T18:13:37;16.70;99.90
3492;DHT22;1760;52.480;13.422;2023-09-30T18:16:05;16.70;99.90
3492;DHT22;1760;52.480;13.422;2023-09-30T18:18:33;17.10;99.90
3492;DHT22;1760;52.480;13.422;2023-09-30T18:21:02;16.70;99.90
3492;DHT22;1760;52.480;13.422;2023-09-30T18:23:30;16.60;99.90
3492;DHT22;1760;52.480;13.422;2023-09-30T18:25:57;16.70;99.90
3492;DHT22;1760;52.480;13.422;2023-09-30T18:28:24;16.70;99.90